sensor_id;sensor_type;location;lat;lon;timestamp;temperature;humidity
39347;DHT22;26262;49.836;6.632;2022-12-29T00:01:26;9.90;99.90
39347;DHT22;26262;49.836;6.632;2022-12-29T00:03:51;9.80;99.90
39347;DHT22;26262;49.836;6.632;2022-12-29T00:06:17;9.80;99.90
39347;DHT22;26262;49.836;6.632;2022-12-29T00:08:42;9.90;99.90
39347;DHT22;26262;49.836;6.632;2022-12-29T00:11:12;9.90;99.90
39347;DHT22;26262;49.836;6.632;2022-12-29T00:13:37;9.90;99.90
39347;DHT22;26262;49.836;6.632;2022-12-29T00:16:22;9.90;99.90
39347;DHT22;26262;49.836;6.632;2022-12-29T00:18:47;9.90;99.90
39347;DHT22;26262;49.836;6.632;2022-12-29T00:21:13;9.90;99.90
39347;DHT22;26262;49.836;6.632;2022-12-29T00:23:58;9.90;99.90
39347;DHT22;26262;49.836;6.632;2022-12-29T00:26:53;10.00;99.90
39347;DHT22;26262;49.836;6.632;2022-12-29T00:29:38;9.90;99.90
39347;DHT22;26262;49.836;6.632;2022-12-29T00:32:22;9.90;99.90
39347;DHT22;26262;49.836;6.632;2022-12-29T00:35:08;10.00;99.90
39347;DHT22;26262;49.836;6.632;2022-12-29T00:37:43;10.00;99.90
39347;DHT22;26262;49.836;6.632;2022-12-29T00:40:30;10.00;99.90
39347;DHT22;26262;49.836;6.632;2022-12-29T00:43:14;10.00;99.90
39347;DHT22;26262;49.836;6.632;2022-12-29T00:45:58;10.00;99.90
39347;DHT22;26262;49.836;6.632;2022-12-29T00:48:23;10.00;99.90
39347;DHT22;26262;49.836;6.632;2022-12-29T00:51:07;10.00;99.90
39347;DHT22;26262;49.836;6.632;2022-12-29T00:53:33;10.00;99.90
39347;DHT22;26262;49.836;6.632;2022-12-29T00:55:58;10.00;99.90
39347;DHT22;26262;49.836;6.632;2022-12-29T00:58:27;10.00;99.90
39347;DHT22;26262;49.836;6.632;2022-12-29T01:00:52;10.00;99.90
39347;DHT22;26262;49.836;6.632;2022-12-29T01:03:18;10.00;99.90
39347;DHT22;26262;49.836;6.632;2022-12-29T01:05:43;10.00;99.90
39347;DHT22;26262;49.836;6.632;2022-12-29T01:08:09;10.00;99.90
39347;DHT22;26262;49.836;6.632;2022-12-29T01:10:34;10.00;99.90
39347;DHT22;26262;49.836;6.632;2022-12-29T01:13:00;10.00;99.90
39347;DHT22;26262;49.836;6.632;2022-12-29T01:15:25;10.00;99.90
39347;DHT22;26262;49.836;6.632;2022-12-29T01:17:51;10.10;99.90
39347;DHT22;26262;49.836;6.632;2022-12-29T01:20:16;10.10;99.90
39347;DHT22;26262;49.836;6.632;2022-12-29T01:22:42;10.10;99.90
39347;DHT22;26262;49.836;6.632;2022-12-29T01:25:08;10.10;99.90
39347;DHT22;26262;49.836;6.632;2022-12-29T01:27:34;10.10;99.90
39347;DHT22;26262;49.836;6.632;2022-12-29T01:29:59;10.10;99.90
39347;DHT22;26262;49.836;6.632;2022-12-29T01:32:25;10.10;99.90
39347;DHT22;26262;49.836;6.632;2022-12-29T01:34:50;10.10;99.90
39347;DHT22;26262;49.836;6.632;2022-12-29T01:37:16;10.10;99.90
39347;DHT22;26262;49.836;6.632;2022-12-29T01:39:41;10.10;99.90
39347;DHT22;26262;49.836;6.632;2022-12-29T01:42:11;10.00;99.90
39347;DHT22;26262;49.836;6.632;2022-12-29T01:47:13;10.00;99.90
39347;DHT22;26262;49.836;6.632;2022-12-29T01:49:39;10.10;99.90
39347;DHT22;26262;49.836;6.632;2022-12-29T01:52:05;10.00;99.90
39347;DHT22;26262;49.836;6.632;2022-12-29T01:57:04;10.00;99.90
39347;DHT22;26262;49.836;6.632;2022-12-29T01:59:34;10.00;99.90
39347;DHT22;26262;49.836;6.632;2022-12-29T02:02:02;10.00;99.90
39347;DHT22;26262;49.836;6.632;2022-12-29T02:04:27;10.00;99.90
39347;DHT22;26262;49.836;6.632;2022-12-29T02:06:56;10.00;99.90
39347;DHT22;26262;49.836;6.632;2022-12-29T02:09:22;9.90;99.90
39347;DHT22;26262;49.836;6.632;2022-12-29T02:11:48;10.00;99.90
39347;DHT22;26262;49.836;6.632;2022-12-29T02:14:14;10.00;99.90
39347;DHT22;26262;49.836;6.632;2022-12-29T02:16:48;9.90;99.90
39347;DHT22;26262;49.836;6.632;2022-12-29T02:29:40;9.90;99.90
39347;DHT22;26262;49.836;6.632;2022-12-29T02:34:57;10.00;99.90
39347;DHT22;26262;49.836;6.632;2022-12-29T02:37:44;9.90;99.90
39347;DHT22;26262;49.836;6.632;2022-12-29T02:40:17;9.90;99.90
39347;DHT22;26262;49.836;6.632;2022-12-29T02:43:03;9.90;99.90
39347;DHT22;26262;49.836;6.632;2022-12-29T02:45:53;9.90;99.90
39347;DHT22;26262;49.836;6.632;2022-12-29T02:53:22;10.10;99.90
39347;DHT22;26262;49.836;6.632;2022-12-29T02:56:08;10.10;99.90
39347;DHT22;26262;49.836;6.632;2022-12-29T02:58:34;10.10;99.90
39347;DHT22;26262;49.836;6.632;2022-12-29T03:05:59;10.00;99.90
39347;DHT22;26262;49.836;6.632;2022-12-29T03:11:02;10.00;99.90
39347;DHT22;26262;49.836;6.632;2022-12-29T03:16:20;10.00;99.90
39347;DHT22;26262;49.836;6.632;2022-12-29T03:18:49;10.00;99.90
39347;DHT22;26262;49.836;6.632;2022-12-29T03:21:23;10.00;99.90
39347;DHT22;26262;49.836;6.632;2022-12-29T03:24:12;10.10;99.90
39347;DHT22;26262;49.836;6.632;2022-12-29T03:26:38;10.00;99.90
39347;DHT22;26262;49.836;6.632;2022-12-29T03:29:04;10.00;99.90
39347;DHT22;26262;49.836;6.632;2022-12-29T03:31:31;10.00;99.90
39347;DHT22;26262;49.836;6.632;2022-12-29T03:33:56;10.00;99.90
39347;DHT22;26262;49.836;6.632;2022-12-29T03:36:26;10.10;99.90
39347;DHT22;26262;49.836;6.632;2022-12-29T03:38:55;10.10;99.90
39347;DHT22;26262;49.836;6.632;2022-12-29T03:41:24;10.10;99.90
39347;DHT22;26262;49.836;6.632;2022-12-29T03:43:51;10.00;99.90
39347;DHT22;26262;49.836;6.632;2022-12-29T03:46:16;10.00;99.90
39347;DHT22;26262;49.836;6.632;2022-12-29T03:48:43;10.00;99.90
39347;DHT22;26262;49.836;6.632;2022-12-29T03:51:08;9.90;99.90
39347;DHT22;26262;49.836;6.632;2022-12-29T03:53:34;9.90;99.90
39347;DHT22;26262;49.836;6.632;2022-12-29T03:55:59;9.90;99.90
39347;DHT22;26262;49.836;6.632;2022-12-29T03:58:24;9.70;99.90
39347;DHT22;26262;49.836;6.632;2022-12-29T04:00:50;9.60;99.90
39347;DHT22;26262;49.836;6.632;2022-12-29T04:03:15;9.70;99.90
39347;DHT22;26262;49.836;6.632;2022-12-29T04:05:41;9.70;99.90
39347;DHT22;26262;49.836;6.632;2022-12-29T04:08:06;9.80;99.90
39347;DHT22;26262;49.836;6.632;2022-12-29T04:10:32;9.80;99.90
39347;DHT22;26262;49.836;6.632;2022-12-29T04:12:57;9.80;99.90
39347;DHT22;26262;49.836;6.632;2022-12-29T04:15:22;9.90;99.90
39347;DHT22;26262;49.836;6.632;2022-12-29T04:17:49;10.00;99.90
39347;DHT22;26262;49.836;6.632;2022-12-29T04:20:14;10.00;99.90
39347;DHT22;26262;49.836;6.632;2022-12-29T04:23:05;10.00;99.90
39347;DHT22;26262;49.836;6.632;2022-12-29T04:25:32;9.90;99.90
39347;DHT22;26262;49.836;6.632;2022-12-29T04:27:57;9.90;99.90
39347;DHT22;26262;49.836;6.632;2022-12-29T04:30:23;9.90;99.90
39347;DHT22;26262;49.836;6.632;2022-12-29T04:32:48;9.90;99.90
39347;DHT22;26262;49.836;6.632;2022-12-29T04:35:14;9.90;99.90
39347;DHT22;26262;49.836;6.632;2022-12-29T04:37:39;9.90;99.90
39347;DHT22;26262;49.836;6.632;2022-12-29T04:40:05;9.90;99.90
39347;DHT22;26262;49.836;6.632;2022-12-29T04:42:31;10.00;99.90
39347;DHT22;26262;49.836;6.632;2022-12-29T04:44:56;10.00;99.90
39347;DHT22;26262;49.836;6.632;2022-12-29T04:47:22;10.00;99.90
39347;DHT22;26262;49.836;6.632;2022-12-29T04:49:47;10.00;99.90
39347;DHT22;26262;49.836;6.632;2022-12-29T04:52:12;10.10;99.90
39347;DHT22;26262;49.836;6.632;2022-12-29T04:54:38;10.10;99.90
39347;DHT22;26262;49.836;6.632;2022-12-29T04:57:03;10.20;99.90
39347;DHT22;26262;49.836;6.632;2022-12-29T04:59:29;10.20;99.90
39347;DHT22;26262;49.836;6.632;2022-12-29T05:01:54;10.30;99.90
39347;DHT22;26262;49.836;6.632;2022-12-29T05:04:20;10.30;99.90
39347;DHT22;26262;49.836;6.632;2022-12-29T05:06:45;10.30;99.90
39347;DHT22;26262;49.836;6.632;2022-12-29T05:09:10;10.40;99.90
39347;DHT22;26262;49.836;6.632;2022-12-29T05:11:36;10.40;99.90
39347;DHT22;26262;49.836;6.632;2022-12-29T05:14:01;10.40;99.90
39347;DHT22;26262;49.836;6.632;2022-12-29T05:16:27;10.40;99.90
39347;DHT22;26262;49.836;6.632;2022-12-29T05:18:52;10.40;99.90
39347;DHT22;26262;49.836;6.632;2022-12-29T05:21:18;10.30;99.90
39347;DHT22;26262;49.836;6.632;2022-12-29T05:23:43;10.40;99.90
39347;DHT22;26262;49.836;6.632;2022-12-29T05:26:08;10.30;99.90
39347;DHT22;26262;49.836;6.632;2022-12-29T05:28:34;10.40;99.90
39347;DHT22;26262;49.836;6.632;2022-12-29T05:30:59;10.30;99.90
39347;DHT22;26262;49.836;6.632;2022-12-29T05:33:25;10.30;99.90
39347;DHT22;26262;49.836;6.632;2022-12-29T05:35:50;10.30;99.90
39347;DHT22;26262;49.836;6.632;2022-12-29T05:38:16;10.30;99.90
39347;DHT22;26262;49.836;6.632;2022-12-29T05:40:42;10.30;99.90
39347;DHT22;26262;49.836;6.632;2022-12-29T05:43:08;10.30;99.90
39347;DHT22;26262;49.836;6.632;2022-12-29T05:45:33;10.30;99.90
39347;DHT22;26262;49.836;6.632;2022-12-29T05:47:59;10.30;99.90
39347;DHT22;26262;49.836;6.632;2022-12-29T05:50:24;10.20;99.90
39347;DHT22;26262;49.836;6.632;2022-12-29T05:52:49;10.10;99.90
39347;DHT22;26262;49.836;6.632;2022-12-29T05:55:16;10.20;99.90
39347;DHT22;26262;49.836;6.632;2022-12-29T05:57:41;10.10;99.90
39347;DHT22;26262;49.836;6.632;2022-12-29T06:00:07;10.10;99.90
39347;DHT22;26262;49.836;6.632;2022-12-29T06:02:33;10.10;99.90
39347;DHT22;26262;49.836;6.632;2022-12-29T06:04:58;10.10;99.90
39347;DHT22;26262;49.836;6.632;2022-12-29T06:07:24;10.00;99.90
39347;DHT22;26262;49.836;6.632;2022-12-29T06:09:49;9.90;99.90
39347;DHT22;26262;49.836;6.632;2022-12-29T06:12:15;10.00;99.90
39347;DHT22;26262;49.836;6.632;2022-12-29T06:14:40;10.00;99.90
39347;DHT22;26262;49.836;6.632;2022-12-29T06:17:06;10.00;99.90
39347;DHT22;26262;49.836;6.632;2022-12-29T06:19:31;10.00;99.90
39347;DHT22;26262;49.836;6.632;2022-12-29T06:21:56;10.00;99.90
39347;DHT22;26262;49.836;6.632;2022-12-29T06:24:22;10.00;99.90
39347;DHT22;26262;49.836;6.632;2022-12-29T06:26:47;10.10;99.90
39347;DHT22;26262;49.836;6.632;2022-12-29T06:29:13;10.10;99.90
39347;DHT22;26262;49.836;6.632;2022-12-29T06:31:42;10.10;99.90
39347;DHT22;26262;49.836;6.632;2022-12-29T06:34:08;10.10;99.90
39347;DHT22;26262;49.836;6.632;2022-12-29T06:36:34;10.10;99.90
39347;DHT22;26262;49.836;6.632;2022-12-29T06:38:59;10.20;99.90
39347;DHT22;26262;49.836;6.632;2022-12-29T06:41:25;10.20;99.90
39347;DHT22;26262;49.836;6.632;2022-12-29T06:43:50;10.20;99.90
39347;DHT22;26262;49.836;6.632;2022-12-29T06:46:15;10.20;99.90
39347;DHT22;26262;49.836;6.632;2022-12-29T06:48:41;10.20;99.90
39347;DHT22;26262;49.836;6.632;2022-12-29T06:51:07;10.20;99.90
39347;DHT22;26262;49.836;6.632;2022-12-29T06:53:33;10.20;99.90
39347;DHT22;26262;49.836;6.632;2022-12-29T06:55:58;10.20;99.90
39347;DHT22;26262;49.836;6.632;2022-12-29T06:58:24;10.20;99.90
39347;DHT22;26262;49.836;6.632;2022-12-29T07:00:49;10.30;99.90
39347;DHT22;26262;49.836;6.632;2022-12-29T07:03:15;10.30;99.90
39347;DHT22;26262;49.836;6.632;2022-12-29T07:05:40;10.30;99.90
39347;DHT22;26262;49.836;6.632;2022-12-29T07:08:05;10.30;99.90
39347;DHT22;26262;49.836;6.632;2022-12-29T07:10:31;10.30;99.90
39347;DHT22;26262;49.836;6.632;2022-12-29T07:12:56;10.30;99.90
39347;DHT22;26262;49.836;6.632;2022-12-29T07:15:22;10.30;99.90
39347;DHT22;26262;49.836;6.632;2022-12-29T07:17:47;10.30;99.90
39347;DHT22;26262;49.836;6.632;2022-12-29T07:20:14;10.30;99.90
39347;DHT22;26262;49.836;6.632;2022-12-29T07:22:40;10.40;99.90
39347;DHT22;26262;49.836;6.632;2022-12-29T07:25:05;10.40;99.90
39347;DHT22;26262;49.836;6.632;2022-12-29T07:27:31;10.40;99.90
39347;DHT22;26262;49.836;6.632;2022-12-29T07:29:56;10.40;99.90
39347;DHT22;26262;49.836;6.632;2022-12-29T07:32:22;10.40;99.90
39347;DHT22;26262;49.836;6.632;2022-12-29T07:34:47;10.40;99.90
39347;DHT22;26262;49.836;6.632;2022-12-29T07:37:14;10.40;99.90
39347;DHT22;26262;49.836;6.632;2022-12-29T07:39:40;10.40;99.90
39347;DHT22;26262;49.836;6.632;2022-12-29T07:42:06;10.40;99.90
39347;DHT22;26262;49.836;6.632;2022-12-29T07:44:31;10.40;99.90
39347;DHT22;26262;49.836;6.632;2022-12-29T07:46:57;10.40;99.90
39347;DHT22;26262;49.836;6.632;2022-12-29T07:49:22;10.50;99.90
39347;DHT22;26262;49.836;6.632;2022-12-29T07:51:48;10.50;99.90
39347;DHT22;26262;49.836;6.632;2022-12-29T07:54:13;10.40;99.90
39347;DHT22;26262;49.836;6.632;2022-12-29T07:56:38;10.50;99.90
39347;DHT22;26262;49.836;6.632;2022-12-29T07:59:04;10.40;99.90
39347;DHT22;26262;49.836;6.632;2022-12-29T08:01:29;10.50;99.90
39347;DHT22;26262;49.836;6.632;2022-12-29T08:03:55;10.50;99.90
39347;DHT22;26262;49.836;6.632;2022-12-29T08:06:20;10.40;99.90
39347;DHT22;26262;49.836;6.632;2022-12-29T08:08:46;10.40;99.90
39347;DHT22;26262;49.836;6.632;2022-12-29T08:11:12;10.30;99.90
39347;DHT22;26262;49.836;6.632;2022-12-29T08:13:37;10.30;99.90
39347;DHT22;26262;49.836;6.632;2022-12-29T08:16:03;10.40;99.90
39347;DHT22;26262;49.836;6.632;2022-12-29T08:18:28;10.40;99.90
39347;DHT22;26262;49.836;6.632;2022-12-29T08:20:54;10.40;99.90
39347;DHT22;26262;49.836;6.632;2022-12-29T08:23:19;10.40;99.90
39347;DHT22;26262;49.836;6.632;2022-12-29T08:25:45;10.40;99.90
39347;DHT22;26262;49.836;6.632;2022-12-29T08:28:10;10.50;99.90
39347;DHT22;26262;49.836;6.632;2022-12-29T08:30:36;10.40;99.90
39347;DHT22;26262;49.836;6.632;2022-12-29T08:33:01;10.30;99.90
39347;DHT22;26262;49.836;6.632;2022-12-29T08:35:27;10.40;99.90
39347;DHT22;26262;49.836;6.632;2022-12-29T08:37:52;10.40;99.90
39347;DHT22;26262;49.836;6.632;2022-12-29T08:40:18;10.40;99.90
39347;DHT22;26262;49.836;6.632;2022-12-29T08:42:43;10.40;99.90
39347;DHT22;26262;49.836;6.632;2022-12-29T08:45:09;10.40;99.90
39347;DHT22;26262;49.836;6.632;2022-12-29T08:47:34;10.40;99.90
39347;DHT22;26262;49.836;6.632;2022-12-29T08:50:00;10.50;99.90
39347;DHT22;26262;49.836;6.632;2022-12-29T08:52:25;10.40;99.90
39347;DHT22;26262;49.836;6.632;2022-12-29T08:54:51;10.50;99.90
39347;DHT22;26262;49.836;6.632;2022-12-29T08:57:16;10.50;99.90
39347;DHT22;26262;49.836;6.632;2022-12-29T08:59:42;10.50;99.90
39347;DHT22;26262;49.836;6.632;2022-12-29T09:02:11;10.40;99.90
39347;DHT22;26262;49.836;6.632;2022-12-29T09:04:37;10.40;99.90
39347;DHT22;26262;49.836;6.632;2022-12-29T09:07:02;10.40;99.90
39347;DHT22;26262;49.836;6.632;2022-12-29T09:09:27;10.50;99.90
39347;DHT22;26262;49.836;6.632;2022-12-29T09:11:53;10.50;99.90
39347;DHT22;26262;49.836;6.632;2022-12-29T09:14:18;10.60;99.90
39347;DHT22;26262;49.836;6.632;2022-12-29T09:16:44;10.60;99.90
39347;DHT22;26262;49.836;6.632;2022-12-29T09:19:28;10.60;99.90
39347;DHT22;26262;49.836;6.632;2022-12-29T09:21:53;10.60;99.90
39347;DHT22;26262;49.836;6.632;2022-12-29T09:24:19;10.60;99.90
39347;DHT22;26262;49.836;6.632;2022-12-29T09:26:44;10.60;99.90
39347;DHT22;26262;49.836;6.632;2022-12-29T09:29:10;10.70;99.90
39347;DHT22;26262;49.836;6.632;2022-12-29T09:31:35;10.70;99.90
39347;DHT22;26262;49.836;6.632;2022-12-29T09:34:01;10.80;99.90
39347;DHT22;26262;49.836;6.632;2022-12-29T09:36:26;10.70;99.90
39347;DHT22;26262;49.836;6.632;2022-12-29T09:38:52;10.70;99.90
39347;DHT22;26262;49.836;6.632;2022-12-29T09:41:20;10.70;99.90
39347;DHT22;26262;49.836;6.632;2022-12-29T09:48:39;10.70;99.90
39347;DHT22;26262;49.836;6.632;2022-12-29T09:51:11;10.70;99.90
39347;DHT22;26262;49.836;6.632;2022-12-29T09:53:39;10.70;99.90
39347;DHT22;26262;49.836;6.632;2022-12-29T09:56:05;10.70;99.90
39347;DHT22;26262;49.836;6.632;2022-12-29T09:58:37;10.70;99.90
39347;DHT22;26262;49.836;6.632;2022-12-29T10:01:21;10.70;99.90
39347;DHT22;26262;49.836;6.632;2022-12-29T10:03:48;10.80;99.90
39347;DHT22;26262;49.836;6.632;2022-12-29T10:06:18;10.70;99.90
39347;DHT22;26262;49.836;6.632;2022-12-29T10:08:52;10.70;99.90
39347;DHT22;26262;49.836;6.632;2022-12-29T10:16:20;10.70;99.90
39347;DHT22;26262;49.836;6.632;2022-12-29T10:21:20;10.80;99.90
39347;DHT22;26262;49.836;6.632;2022-12-29T10:23:48;10.70;99.90
39347;DHT22;26262;49.836;6.632;2022-12-29T10:26:17;10.70;99.90
39347;DHT22;26262;49.836;6.632;2022-12-29T10:28:45;10.80;99.90
39347;DHT22;26262;49.836;6.632;2022-12-29T10:31:13;10.80;99.90
39347;DHT22;26262;49.836;6.632;2022-12-29T10:33:42;10.80;99.90
39347;DHT22;26262;49.836;6.632;2022-12-29T10:36:10;10.80;99.90
39347;DHT22;26262;49.836;6.632;2022-12-29T10:38:40;10.80;99.90
39347;DHT22;26262;49.836;6.632;2022-12-29T10:41:10;10.80;99.90
39347;DHT22;26262;49.836;6.632;2022-12-29T10:43:46;10.70;99.90
39347;DHT22;26262;49.836;6.632;2022-12-29T10:46:14;10.70;99.90
39347;DHT22;26262;49.836;6.632;2022-12-29T10:48:41;10.80;99.90
39347;DHT22;26262;49.836;6.632;2022-12-29T10:51:11;10.70;99.90
39347;DHT22;26262;49.836;6.632;2022-12-29T10:53:46;10.70;99.90
39347;DHT22;26262;49.836;6.632;2022-12-29T10:56:21;10.70;99.90
39347;DHT22;26262;49.836;6.632;2022-12-29T10:58:49;10.80;99.90
39347;DHT22;26262;49.836;6.632;2022-12-29T11:01:15;10.80;99.90
39347;DHT22;26262;49.836;6.632;2022-12-29T11:03:49;10.80;99.90
39347;DHT22;26262;49.836;6.632;2022-12-29T11:06:22;10.90;99.90
39347;DHT22;26262;49.836;6.632;2022-12-29T11:08:53;10.80;99.90
39347;DHT22;26262;49.836;6.632;2022-12-29T11:11:24;10.80;99.90
39347;DHT22;26262;49.836;6.632;2022-12-29T11:13:55;10.90;99.90
39347;DHT22;26262;49.836;6.632;2022-12-29T11:16:28;10.90;99.90
39347;DHT22;26262;49.836;6.632;2022-12-29T11:18:55;10.90;99.90
39347;DHT22;26262;49.836;6.632;2022-12-29T11:24:02;10.70;99.90
39347;DHT22;26262;49.836;6.632;2022-12-29T11:26:29;10.80;99.90
39347;DHT22;26262;49.836;6.632;2022-12-29T11:31:29;10.90;99.90
39347;DHT22;26262;49.836;6.632;2022-12-29T11:33:54;10.90;99.90
39347;DHT22;26262;49.836;6.632;2022-12-29T11:36:21;10.90;99.90
39347;DHT22;26262;49.836;6.632;2022-12-29T11:38:48;10.90;99.90
39347;DHT22;26262;49.836;6.632;2022-12-29T11:41:18;10.90;99.90
39347;DHT22;26262;49.836;6.632;2022-12-29T11:43:45;10.80;99.90
39347;DHT22;26262;49.836;6.632;2022-12-29T11:46:23;10.90;99.90
39347;DHT22;26262;49.836;6.632;2022-12-29T11:48:49;10.90;99.90
39347;DHT22;26262;49.836;6.632;2022-12-29T11:51:22;10.90;99.90
39347;DHT22;26262;49.836;6.632;2022-12-29T11:53:52;10.90;99.90
39347;DHT22;26262;49.836;6.632;2022-12-29T11:56:30;10.90;99.90
39347;DHT22;26262;49.836;6.632;2022-12-29T11:58:57;10.90;99.90
39347;DHT22;26262;49.836;6.632;2022-12-29T12:01:28;10.90;99.90
39347;DHT22;26262;49.836;6.632;2022-12-29T12:06:22;10.90;99.90
39347;DHT22;26262;49.836;6.632;2022-12-29T12:11:21;10.80;99.90
39347;DHT22;26262;49.836;6.632;2022-12-29T12:13:55;10.90;99.90
39347;DHT22;26262;49.836;6.632;2022-12-29T12:16:27;10.80;99.90
39347;DHT22;26262;49.836;6.632;2022-12-29T12:21:39;10.80;99.90
39347;DHT22;26262;49.836;6.632;2022-12-29T12:24:18;10.70;99.90
39347;DHT22;26262;49.836;6.632;2022-12-29T12:27:03;10.80;99.90
39347;DHT22;26262;49.836;6.632;2022-12-29T12:32:05;10.90;99.90
39347;DHT22;26262;49.836;6.632;2022-12-29T12:34:38;11.00;99.90
39347;DHT22;26262;49.836;6.632;2022-12-29T12:37:15;11.00;99.90
39347;DHT22;26262;49.836;6.632;2022-12-29T12:42:21;11.20;99.90
39347;DHT22;26262;49.836;6.632;2022-12-29T12:55:28;11.40;99.90
39347;DHT22;26262;49.836;6.632;2022-12-29T12:58:02;11.30;99.90
39347;DHT22;26262;49.836;6.632;2022-12-29T13:00:33;11.30;99.90
39347;DHT22;26262;49.836;6.632;2022-12-29T13:03:12;11.20;99.90
39347;DHT22;26262;49.836;6.632;2022-12-29T13:13:57;11.10;99.90
39347;DHT22;26262;49.836;6.632;2022-12-29T13:21:37;11.00;99.90
39347;DHT22;26262;49.836;6.632;2022-12-29T13:24:16;11.00;99.90
39347;DHT22;26262;49.836;6.632;2022-12-29T13:26:49;11.00;99.90
39347;DHT22;26262;49.836;6.632;2022-12-29T13:29:20;11.00;99.90
39347;DHT22;26262;49.836;6.632;2022-12-29T13:31:50;11.00;99.90
39347;DHT22;26262;49.836;6.632;2022-12-29T13:34:27;11.10;99.90
39347;DHT22;26262;49.836;6.632;2022-12-29T13:36:56;11.20;99.90
39347;DHT22;26262;49.836;6.632;2022-12-29T13:40:10;11.20;99.90
39347;DHT22;26262;49.836;6.632;2022-12-29T13:42:12;11.20;99.90
39347;DHT22;26262;49.836;6.632;2022-12-29T13:44:45;11.20;99.90
39347;DHT22;26262;49.836;6.632;2022-12-29T13:47:15;11.10;99.90
39347;DHT22;26262;49.836;6.632;2022-12-29T13:49:44;11.10;99.90
39347;DHT22;26262;49.836;6.632;2022-12-29T13:52:22;11.10;99.90
39347;DHT22;26262;49.836;6.632;2022-12-29T13:54:58;11.10;99.90
39347;DHT22;26262;49.836;6.632;2022-12-29T14:00:02;11.00;99.90
39347;DHT22;26262;49.836;6.632;2022-12-29T14:07:48;10.90;99.90
39347;DHT22;26262;49.836;6.632;2022-12-29T14:10:31;10.90;99.90
39347;DHT22;26262;49.836;6.632;2022-12-29T14:13:05;10.90;99.90
39347;DHT22;26262;49.836;6.632;2022-12-29T14:15:31;10.80;99.90
39347;DHT22;26262;49.836;6.632;2022-12-29T14:18:09;10.90;99.90
39347;DHT22;26262;49.836;6.632;2022-12-29T14:20:35;10.90;99.90
39347;DHT22;26262;49.836;6.632;2022-12-29T14:25:51;10.80;99.90
39347;DHT22;26262;49.836;6.632;2022-12-29T14:28:25;10.80;99.90
39347;DHT22;26262;49.836;6.632;2022-12-29T14:30:51;10.70;99.90
39347;DHT22;26262;49.836;6.632;2022-12-29T14:33:18;10.60;99.90
39347;DHT22;26262;49.836;6.632;2022-12-29T14:35:44;10.50;99.90
39347;DHT22;26262;49.836;6.632;2022-12-29T14:38:24;10.40;99.90
39347;DHT22;26262;49.836;6.632;2022-12-29T14:40:50;10.40;99.90
39347;DHT22;26262;49.836;6.632;2022-12-29T14:43:23;10.40;99.90
39347;DHT22;26262;49.836;6.632;2022-12-29T14:46:00;10.30;99.90
39347;DHT22;26262;49.836;6.632;2022-12-29T14:48:33;10.30;99.90
39347;DHT22;26262;49.836;6.632;2022-12-29T14:50:59;10.20;99.90
39347;DHT22;26262;49.836;6.632;2022-12-29T14:56:08;9.90;99.90
39347;DHT22;26262;49.836;6.632;2022-12-29T14:58:47;9.80;99.90
39347;DHT22;26262;49.836;6.632;2022-12-29T15:01:17;9.70;99.90
39347;DHT22;26262;49.836;6.632;2022-12-29T15:03:46;9.70;99.90
39347;DHT22;26262;49.836;6.632;2022-12-29T15:06:14;9.70;99.90
39347;DHT22;26262;49.836;6.632;2022-12-29T15:08:53;9.70;99.90
39347;DHT22;26262;49.836;6.632;2022-12-29T15:11:21;9.60;99.90
39347;DHT22;26262;49.836;6.632;2022-12-29T15:13:47;9.40;99.90
39347;DHT22;26262;49.836;6.632;2022-12-29T15:16:21;9.50;99.90
39347;DHT22;26262;49.836;6.632;2022-12-29T15:18:46;9.40;99.90
39347;DHT22;26262;49.836;6.632;2022-12-29T15:21:12;9.50;99.90
39347;DHT22;26262;49.836;6.632;2022-12-29T15:23:39;9.50;99.90
39347;DHT22;26262;49.836;6.632;2022-12-29T15:26:05;9.50;99.90
39347;DHT22;26262;49.836;6.632;2022-12-29T15:28:41;9.50;99.90
39347;DHT22;26262;49.836;6.632;2022-12-29T15:31:20;9.50;99.90
39347;DHT22;26262;49.836;6.632;2022-12-29T15:33:47;9.50;99.90
39347;DHT22;26262;49.836;6.632;2022-12-29T15:36:27;9.40;99.90
39347;DHT22;26262;49.836;6.632;2022-12-29T15:38:53;9.30;99.90
39347;DHT22;26262;49.836;6.632;2022-12-29T15:44:11;9.10;99.90
39347;DHT22;26262;49.836;6.632;2022-12-29T15:46:39;8.80;99.90
39347;DHT22;26262;49.836;6.632;2022-12-29T15:49:05;8.70;99.90
39347;DHT22;26262;49.836;6.632;2022-12-29T15:51:33;8.60;99.90
39347;DHT22;26262;49.836;6.632;2022-12-29T15:53:59;8.30;99.90
39347;DHT22;26262;49.836;6.632;2022-12-29T15:56:27;8.30;99.90
39347;DHT22;26262;49.836;6.632;2022-12-29T15:58:53;8.30;99.90
39347;DHT22;26262;49.836;6.632;2022-12-29T16:01:32;8.20;99.90
39347;DHT22;26262;49.836;6.632;2022-12-29T16:03:58;8.30;99.90
39347;DHT22;26262;49.836;6.632;2022-12-29T16:08:55;8.00;99.90
39347;DHT22;26262;49.836;6.632;2022-12-29T16:13:47;7.60;99.90
39347;DHT22;26262;49.836;6.632;2022-12-29T16:16:15;7.40;99.90
39347;DHT22;26262;49.836;6.632;2022-12-29T16:18:41;7.30;99.90
39347;DHT22;26262;49.836;6.632;2022-12-29T16:21:14;7.20;99.90
39347;DHT22;26262;49.836;6.632;2022-12-29T16:23:41;7.20;99.90
39347;DHT22;26262;49.836;6.632;2022-12-29T16:26:13;7.10;99.90
39347;DHT22;26262;49.836;6.632;2022-12-29T16:28:40;7.00;99.90
39347;DHT22;26262;49.836;6.632;2022-12-29T16:31:25;7.10;99.90
39347;DHT22;26262;49.836;6.632;2022-12-29T16:33:57;6.80;99.90
39347;DHT22;26262;49.836;6.632;2022-12-29T16:36:23;6.80;99.90
39347;DHT22;26262;49.836;6.632;2022-12-29T16:38:49;6.80;99.90
39347;DHT22;26262;49.836;6.632;2022-12-29T16:41:27;6.80;99.90
39347;DHT22;26262;49.836;6.632;2022-12-29T16:49:23;6.60;99.90
39347;DHT22;26262;49.836;6.632;2022-12-29T16:51:48;6.50;99.90
39347;DHT22;26262;49.836;6.632;2022-12-29T16:54:19;6.60;99.90
39347;DHT22;26262;49.836;6.632;2022-12-29T16:56:46;6.50;99.90
39347;DHT22;26262;49.836;6.632;2022-12-29T16:59:26;6.40;99.90
39347;DHT22;26262;49.836;6.632;2022-12-29T17:01:54;6.30;99.90
39347;DHT22;26262;49.836;6.632;2022-12-29T17:04:20;6.40;99.90
39347;DHT22;26262;49.836;6.632;2022-12-29T17:06:46;6.30;99.90
39347;DHT22;26262;49.836;6.632;2022-12-29T17:09:24;6.20;99.90
39347;DHT22;26262;49.836;6.632;2022-12-29T17:11:54;6.10;99.90
39347;DHT22;26262;49.836;6.632;2022-12-29T17:16:48;6.10;99.90
39347;DHT22;26262;49.836;6.632;2022-12-29T17:19:15;6.30;99.90
39347;DHT22;26262;49.836;6.632;2022-12-29T17:21:41;6.10;99.90
39347;DHT22;26262;49.836;6.632;2022-12-29T17:24:11;6.10;99.90
39347;DHT22;26262;49.836;6.632;2022-12-29T17:26:40;6.10;99.90
39347;DHT22;26262;49.836;6.632;2022-12-29T17:29:05;6.00;99.90
39347;DHT22;26262;49.836;6.632;2022-12-29T17:31:31;6.10;99.90
39347;DHT22;26262;49.836;6.632;2022-12-29T17:33:56;6.10;99.90
39347;DHT22;26262;49.836;6.632;2022-12-29T17:36:23;5.90;99.90
39347;DHT22;26262;49.836;6.632;2022-12-29T17:38:48;5.90;99.90
39347;DHT22;26262;49.836;6.632;2022-12-29T17:41:14;5.90;99.90